createdAt,value
2023-01-15T00:01:45.364Z,95.42
2023-01-15T00:04:12.198Z,95.62
2023-01-15T00:06:40.736Z,95.48
2023-01-15T00:09:08.157Z,95.40
2023-01-15T00:11:34.980Z,95.01
2023-01-15T00:14:01.838Z,95.46
2023-01-15T00:16:28.704Z,96.01
2023-01-15T00:18:59.948Z,95.95
2023-01-15T00:21:27.568Z,95.89
2023-01-15T00:24:13.090Z,95.43
2023-01-15T00:26:58.734Z,95.22
2023-01-15T00:29:25.689Z,94.90
2023-01-15T00:31:57.741Z,94.48
2023-01-15T00:34:24.994Z,94.57
2023-01-15T00:36:52.149Z,94.75
2023-01-15T00:39:19.146Z,94.87
2023-01-15T00:41:46.013Z,94.83
2023-01-15T00:44:12.926Z,94.88
2023-01-15T00:46:39.796Z,94.66
2023-01-15T00:49:06.622Z,94.94
2023-01-15T00:51:33.498Z,94.70
2023-01-15T00:54:00.309Z,94.69
2023-01-15T00:56:27.152Z,95.34
2023-01-15T00:58:54.118Z,95.64
2023-01-15T01:01:21.212Z,95.90
2023-01-15T01:03:50.264Z,95.79
2023-01-15T01:06:17.373Z,96.39
2023-01-15T01:08:46.211Z,97.06
2023-01-15T01:11:14.459Z,97.24
2023-01-15T01:13:41.580Z,97.73
2023-01-15T01:16:38.717Z,97.72
2023-01-15T01:19:09.067Z,98.26
2023-01-15T01:21:36.784Z,98.06
2023-01-15T01:24:03.712Z,98.40
2023-01-15T01:26:30.694Z,98.68
2023-01-15T01:28:57.555Z,98.73
2023-01-15T01:31:24.556Z,98.88
2023-01-15T01:33:52.413Z,99.59
2023-01-15T01:36:20.101Z,100.00
2023-01-15T01:38:52.520Z,100.00
2023-01-15T01:41:19.723Z,100.00
2023-01-15T01:43:58.607Z,99.66
2023-01-15T01:46:26.164Z,99.47
2023-01-15T01:48:55.485Z,99.30
2023-01-15T01:51:23.558Z,98.89
2023-01-15T01:53:50.348Z,98.58
2023-01-15T01:56:17.905Z,98.49
2023-01-15T01:58:48.793Z,97.78
2023-01-15T02:01:15.936Z,97.24
2023-01-15T02:03:42.728Z,96.82
2023-01-15T02:06:10.361Z,95.23
2023-01-15T02:08:39.615Z,93.85
2023-01-15T02:11:07.777Z,93.36
2023-01-15T02:13:42.144Z,92.78
2023-01-15T02:16:14.171Z,92.92
2023-01-15T02:18:52.219Z,93.47
2023-01-15T02:21:24.551Z,93.40
2023-01-15T02:24:03.313Z,93.23
2023-01-15T02:26:57.367Z,93.45
2023-01-15T02:29:52.128Z,92.92
2023-01-15T02:32:49.909Z,93.31
2023-01-15T02:35:29.570Z,92.96
2023-01-15T02:38:11.478Z,92.42
2023-01-15T02:40:38.547Z,92.46
2023-01-15T02:43:05.915Z,92.95
2023-01-15T02:45:33.920Z,92.79
2023-01-15T02:48:14.100Z,92.26
2023-01-15T02:50:43.025Z,92.42
2023-01-15T02:53:11.323Z,92.72
2023-01-15T02:55:41.504Z,92.97
2023-01-15T02:58:10.897Z,93.17
2023-01-15T03:00:39.716Z,93.13
2023-01-15T03:03:45.765Z,92.88
2023-01-15T03:06:39.399Z,92.98
2023-01-15T03:09:06.876Z,93.13
2023-01-15T03:11:38.098Z,93.33
2023-01-15T03:14:09.950Z,93.34
2023-01-15T03:16:42.895Z,92.94
2023-01-15T03:19:39.658Z,93.19
2023-01-15T03:22:19.973Z,93.24
2023-01-15T03:24:48.112Z,92.94
2023-01-15T03:27:15.654Z,92.65
2023-01-15T03:29:44.024Z,92.31
2023-01-15T03:32:10.917Z,92.19
2023-01-15T03:34:51.104Z,91.93
2023-01-15T03:37:18.789Z,91.71
2023-01-15T03:39:45.634Z,91.88
2023-01-15T03:42:35.883Z,91.80
2023-01-15T03:45:16.042Z,91.89
2023-01-15T03:48:17.646Z,91.42
2023-01-15T03:50:57.629Z,91.31
2023-01-15T03:53:28.467Z,91.26
2023-01-15T03:56:17.522Z,90.78
2023-01-15T03:58:54.415Z,90.81
2023-01-15T04:01:25.899Z,90.80
2023-01-15T04:03:52.733Z,90.95
2023-01-15T04:06:19.564Z,91.03
2023-01-15T04:08:46.312Z,90.92
2023-01-15T04:11:13.076Z,91.12
2023-01-15T04:13:39.937Z,90.91
2023-01-15T04:16:07.126Z,90.96
2023-01-15T04:18:33.926Z,90.70
2023-01-15T04:21:00.810Z,90.53
2023-01-15T04:23:27.601Z,90.56
2023-01-15T04:25:54.389Z,90.39
2023-01-15T04:28:21.283Z,90.32
2023-01-15T04:30:48.382Z,90.20
2023-01-15T04:33:15.278Z,90.22
2023-01-15T04:35:42.167Z,90.30
2023-01-15T04:38:08.956Z,90.56
2023-01-15T04:40:54.759Z,90.66
2023-01-15T04:43:40.179Z,90.69
2023-01-15T04:46:07.104Z,90.76
2023-01-15T04:48:33.939Z,91.00
2023-01-15T04:51:04.618Z,91.17
2023-01-15T04:53:31.434Z,91.27
2023-01-15T04:56:02.373Z,90.98
2023-01-15T04:58:29.355Z,90.84
2023-01-15T05:00:56.396Z,90.62
2023-01-15T05:03:23.231Z,90.63
2023-01-15T05:05:50.837Z,90.76
2023-01-15T05:08:17.769Z,90.82
2023-01-15T05:10:44.602Z,90.77
2023-01-15T05:13:11.396Z,90.81
2023-01-15T05:15:41.036Z,90.77
2023-01-15T05:18:07.950Z,90.50
2023-01-15T05:20:37.673Z,90.32
2023-01-15T05:23:04.608Z,90.36
2023-01-15T05:25:31.367Z,90.08
2023-01-15T05:27:58.158Z,90.22
2023-01-15T05:30:25.157Z,90.00
2023-01-15T05:32:52.110Z,89.97
2023-01-15T05:35:18.858Z,89.73
2023-01-15T05:37:45.759Z,89.83
2023-01-15T05:40:12.738Z,89.57
2023-01-15T05:42:39.515Z,89.70
2023-01-15T05:45:06.910Z,89.58
2023-01-15T05:47:35.900Z,89.38
2023-01-15T05:50:02.807Z,89.22
2023-01-15T05:52:29.718Z,89.05
2023-01-15T05:54:56.519Z,89.44
2023-01-15T05:57:23.279Z,89.69
2023-01-15T05:59:50.685Z,89.73
2023-01-15T06:02:17.449Z,89.37
2023-01-15T06:04:44.199Z,89.15
2023-01-15T06:07:11.209Z,89.21
2023-01-15T06:09:38.027Z,89.32
2023-01-15T06:12:05.159Z,89.32
2023-01-15T06:14:32.116Z,89.30
2023-01-15T06:16:58.913Z,89.09
2023-01-15T06:19:25.724Z,89.02
2023-01-15T06:21:52.683Z,88.85
2023-01-15T06:24:20.229Z,88.75
2023-01-15T06:26:47.029Z,88.65
2023-01-15T06:29:17.730Z,88.47
2023-01-15T06:31:44.607Z,88.55
2023-01-15T06:34:11.405Z,88.48
2023-01-15T06:36:38.296Z,88.88
2023-01-15T06:39:05.504Z,88.44
2023-01-15T06:41:51.117Z,87.92
2023-01-15T06:44:36.773Z,87.87
2023-01-15T06:47:24.292Z,88.42
2023-01-15T06:49:56.019Z,87.55
2023-01-15T06:52:23.995Z,87.62
2023-01-15T06:54:50.986Z,87.56
2023-01-15T06:57:19.109Z,87.87
2023-01-15T06:59:46.454Z,87.90
2023-01-15T07:02:13.309Z,88.00
2023-01-15T07:04:40.071Z,87.78
2023-01-15T07:07:06.972Z,87.59
2023-01-15T07:09:33.809Z,87.32
2023-01-15T07:12:00.586Z,87.01
2023-01-15T07:14:31.421Z,87.13
2023-01-15T07:16:59.426Z,86.90
2023-01-15T07:19:26.618Z,86.87
2023-01-15T07:21:53.555Z,86.55
2023-01-15T07:24:20.339Z,86.45
2023-01-15T07:26:47.227Z,86.22
2023-01-15T07:29:14.366Z,86.17
2023-01-15T07:31:41.563Z,86.05
2023-01-15T07:34:08.367Z,86.01
2023-01-15T07:36:35.220Z,85.83
2023-01-15T07:39:04.621Z,85.59
2023-01-15T07:41:49.963Z,85.67
2023-01-15T07:44:35.365Z,85.69
2023-01-15T07:47:21.156Z,85.71
2023-01-15T07:49:51.229Z,85.57
2023-01-15T07:52:19.700Z,85.49
2023-01-15T07:54:47.018Z,85.43
2023-01-15T07:57:15.052Z,85.58
2023-01-15T07:59:41.863Z,85.33
2023-01-15T08:02:08.892Z,85.58
2023-01-15T08:04:35.834Z,85.56
2023-01-15T08:07:03.222Z,85.67
2023-01-15T08:09:30.406Z,85.75
2023-01-15T08:12:17.741Z,85.74
2023-01-15T08:15:03.299Z,85.79
2023-01-15T08:17:30.318Z,85.90
2023-01-15T08:19:57.100Z,86.08
2023-01-15T08:22:24.024Z,86.37
2023-01-15T08:24:50.858Z,86.85
2023-01-15T08:27:17.695Z,87.44
2023-01-15T08:29:44.566Z,88.14
2023-01-15T08:32:11.319Z,89.02
2023-01-15T08:34:38.223Z,89.83
2023-01-15T08:37:05.126Z,90.67
2023-01-15T08:39:31.972Z,91.45
2023-01-15T08:41:58.774Z,92.26
2023-01-15T08:44:25.793Z,93.29
2023-01-15T08:46:52.741Z,94.50
2023-01-15T08:49:20.236Z,95.20
2023-01-15T08:51:52.063Z,95.81
2023-01-15T08:54:20.018Z,96.30
2023-01-15T08:56:46.959Z,97.09
2023-01-15T08:59:14.196Z,98.12
2023-01-15T09:01:41.203Z,98.77
2023-01-15T09:04:08.125Z,99.53
2023-01-15T09:06:35.055Z,100.00
2023-01-15T09:09:01.930Z,100.00
2023-01-15T09:11:28.928Z,100.00
2023-01-15T09:13:55.846Z,100.00
2023-01-15T09:16:22.797Z,100.00
2023-01-15T09:18:49.586Z,100.00
2023-01-15T09:21:16.583Z,100.00
2023-01-15T09:23:43.351Z,100.00
2023-01-15T09:26:25.534Z,100.00
2023-01-15T09:28:52.803Z,100.00
2023-01-15T09:31:19.566Z,100.00
2023-01-15T09:33:46.451Z,100.00
2023-01-15T09:36:30.558Z,100.00
2023-01-15T09:38:58.137Z,100.00
2023-01-15T09:41:44.928Z,100.00
2023-01-15T09:44:23.895Z,100.00
2023-01-15T09:46:58.647Z,100.00
2023-01-15T09:49:38.084Z,99.19
2023-01-15T09:52:23.144Z,98.30
2023-01-15T09:55:08.186Z,97.94
2023-01-15T09:57:35.131Z,98.22
2023-01-15T10:00:02.603Z,97.53
2023-01-15T10:02:43.282Z,97.33
2023-01-15T10:05:37.899Z,97.62
2023-01-15T10:08:13.232Z,97.27
2023-01-15T10:10:45.062Z,96.57
2023-01-15T10:13:33.140Z,95.74
2023-01-15T10:16:00.120Z,97.55
2023-01-15T10:18:27.370Z,98.71
2023-01-15T10:21:12.772Z,98.52
2023-01-15T10:23:51.254Z,97.25
2023-01-15T10:26:30.676Z,97.27
2023-01-15T10:29:10.790Z,95.46
2023-01-15T10:31:53.707Z,95.49
2023-01-15T10:34:33.769Z,94.21
2023-01-15T10:37:09.678Z,93.84
2023-01-15T10:40:01.104Z,92.09
2023-01-15T10:42:33.032Z,91.35
2023-01-15T10:45:18.023Z,87.06
2023-01-15T10:47:45.711Z,86.92
2023-01-15T10:50:24.390Z,85.76
2023-01-15T10:53:09.398Z,81.83
2023-01-15T10:55:47.694Z,82.19
2023-01-15T10:58:23.074Z,79.41
2023-01-15T11:00:52.639Z,80.27
2023-01-15T11:03:38.518Z,75.81
2023-01-15T11:06:08.367Z,78.38
2023-01-15T11:11:59.171Z,73.88
2023-01-15T11:15:00.812Z,75.47
2023-01-15T11:17:57.907Z,75.95
2023-01-15T11:20:37.323Z,77.54
2023-01-15T11:23:08.843Z,75.60
2023-01-15T11:25:35.749Z,75.25
2023-01-15T11:28:06.495Z,73.46
2023-01-15T11:30:37.657Z,73.89
2023-01-15T11:33:06.575Z,71.70
2023-01-15T11:35:33.944Z,69.43
2023-01-15T11:38:14.144Z,68.08
2023-01-15T11:40:53.419Z,67.71
2023-01-15T11:43:40.637Z,70.08
2023-01-15T11:46:46.808Z,65.95
2023-01-15T11:49:38.057Z,70.02
2023-01-15T11:52:17.921Z,66.66
2023-01-15T11:54:47.490Z,67.23
2023-01-15T11:57:26.863Z,63.55
2023-01-15T11:59:53.776Z,65.95
2023-01-15T12:02:28.391Z,60.90
2023-01-15T12:04:56.770Z,62.29
2023-01-15T12:07:24.615Z,62.24
2023-01-15T12:10:15.661Z,60.19
2023-01-15T12:12:54.849Z,62.25
2023-01-15T12:15:36.900Z,63.54
2023-01-15T12:18:11.731Z,62.37
2023-01-15T12:20:50.642Z,59.98
2023-01-15T12:23:32.473Z,61.43
2023-01-15T12:26:17.991Z,60.03
2023-01-15T12:29:00.869Z,60.03
2023-01-15T12:31:43.730Z,59.26
2023-01-15T12:34:23.227Z,60.98
2023-01-15T12:36:59.629Z,62.02
2023-01-15T12:39:36.982Z,61.89
2023-01-15T12:42:24.774Z,64.28
2023-01-15T12:45:04.372Z,64.41
2023-01-15T12:47:49.463Z,62.00
2023-01-15T12:50:38.137Z,63.92
2023-01-15T12:53:12.794Z,62.64
2023-01-15T12:55:43.181Z,61.81
2023-01-15T12:58:40.328Z,61.13
2023-01-15T13:01:18.903Z,60.81
2023-01-15T13:03:54.225Z,60.26
2023-01-15T13:06:21.210Z,62.49
2023-01-15T13:09:02.204Z,60.05
2023-01-15T13:11:29.187Z,61.91
2023-01-15T13:13:58.748Z,59.18
2023-01-15T13:16:47.244Z,57.61
2023-01-15T13:19:29.089Z,58.65
2023-01-15T13:21:57.789Z,58.70
2023-01-15T13:24:59.859Z,57.77
2023-01-15T13:28:06.612Z,57.54
2023-01-15T13:30:52.521Z,57.30
2023-01-15T13:33:30.356Z,54.90
2023-01-15T13:36:03.978Z,54.74
2023-01-15T13:38:31.168Z,55.29
2023-01-15T13:40:57.966Z,56.21
2023-01-15T13:43:33.165Z,54.76
2023-01-15T13:45:59.965Z,55.77
2023-01-15T13:48:33.283Z,55.15
2023-01-15T13:51:00.983Z,55.77
2023-01-15T13:53:46.641Z,56.87
2023-01-15T13:56:15.861Z,57.50
2023-01-15T13:58:56.643Z,56.87
2023-01-15T14:01:24.502Z,57.09
2023-01-15T14:04:05.236Z,55.68
2023-01-15T14:06:47.768Z,57.46
2023-01-15T14:09:27.201Z,58.05
2023-01-15T14:12:22.051Z,58.34
2023-01-15T14:15:13.303Z,57.88
2023-01-15T14:17:58.606Z,58.52
2023-01-15T14:20:44.713Z,58.09
2023-01-15T14:23:47.876Z,59.17
2023-01-15T14:26:44.570Z,59.12
2023-01-15T14:29:36.194Z,60.61
2023-01-15T14:32:24.493Z,60.19
2023-01-15T14:34:55.763Z,61.54
2023-01-15T14:37:30.230Z,60.95
2023-01-15T14:40:01.149Z,61.12
2023-01-15T14:42:53.794Z,61.76
2023-01-15T14:45:33.778Z,61.62
2023-01-15T14:48:01.889Z,61.91
2023-01-15T14:50:42.320Z,62.08
2023-01-15T14:53:13.619Z,62.12
2023-01-15T14:55:51.491Z,61.83
2023-01-15T14:58:24.530Z,61.88
2023-01-15T15:00:52.579Z,62.54
2023-01-15T15:03:22.426Z,62.20
2023-01-15T15:05:49.317Z,62.94
2023-01-15T15:08:16.851Z,62.97
2023-01-15T15:10:44.490Z,61.25
2023-01-15T15:13:28.089Z,61.71
2023-01-15T15:16:15.048Z,62.50
2023-01-15T15:18:44.647Z,62.93
2023-01-15T15:21:20.763Z,62.98
2023-01-15T15:23:53.435Z,63.32
2023-01-15T15:26:22.192Z,63.75
2023-01-15T15:28:59.812Z,63.00
2023-01-15T15:31:26.815Z,63.97
2023-01-15T15:33:56.895Z,63.58
2023-01-15T15:36:24.796Z,64.05
2023-01-15T15:39:04.026Z,64.07
2023-01-15T15:41:54.929Z,64.41
2023-01-15T15:45:01.910Z,63.89
2023-01-15T15:47:47.285Z,64.91
2023-01-15T15:50:24.750Z,64.04
2023-01-15T15:52:51.916Z,64.59
2023-01-15T15:55:19.820Z,64.54
2023-01-15T15:57:51.996Z,64.49
2023-01-15T16:00:20.496Z,64.24
2023-01-15T16:02:47.313Z,64.95
2023-01-15T16:05:29.576Z,64.69
2023-01-15T16:07:56.418Z,65.56
2023-01-15T16:10:30.726Z,65.82
2023-01-15T16:12:59.343Z,66.56
2023-01-15T16:15:31.055Z,65.81
2023-01-15T16:17:57.946Z,65.40
2023-01-15T16:20:24.915Z,65.45
2023-01-15T16:22:58.748Z,65.68
2023-01-15T16:25:26.654Z,66.23
2023-01-15T16:27:53.632Z,65.95
2023-01-15T16:30:21.183Z,66.14
2023-01-15T16:32:48.566Z,65.87
2023-01-15T16:35:17.526Z,65.84
2023-01-15T16:37:47.894Z,66.28
2023-01-15T16:40:37.530Z,66.31
2023-01-15T16:43:13.327Z,65.82
2023-01-15T16:46:03.094Z,66.21
2023-01-15T16:48:34.304Z,66.63
2023-01-15T16:51:22.050Z,66.98
2023-01-15T16:53:48.964Z,67.81
2023-01-15T16:56:40.586Z,66.89
2023-01-15T16:59:45.596Z,67.06
2023-01-15T17:02:13.236Z,67.72
2023-01-15T17:04:41.570Z,67.90
2023-01-15T17:07:14.561Z,67.68
2023-01-15T17:09:49.733Z,67.53
2023-01-15T17:12:49.059Z,67.76
2023-01-15T17:15:18.629Z,68.28
2023-01-15T17:17:51.609Z,68.46
2023-01-15T17:20:19.772Z,68.70
2023-01-15T17:22:49.183Z,68.85
2023-01-15T17:25:31.231Z,69.04
2023-01-15T17:27:59.641Z,69.52
2023-01-15T17:30:33.503Z,69.65
2023-01-15T17:33:01.114Z,69.79
2023-01-15T17:35:29.966Z,69.90
2023-01-15T17:37:56.860Z,69.99
2023-01-15T17:40:23.683Z,70.10
2023-01-15T17:42:50.559Z,70.27
2023-01-15T17:45:24.060Z,70.18
2023-01-15T17:47:50.878Z,70.56
2023-01-15T17:50:17.869Z,70.58
2023-01-15T17:52:44.803Z,70.64
2023-01-15T17:55:30.989Z,70.79
2023-01-15T17:58:16.771Z,71.14
2023-01-15T18:01:02.075Z,71.29
2023-01-15T18:03:47.623Z,71.44
2023-01-15T18:06:14.761Z,71.53
2023-01-15T18:08:43.543Z,71.56
2023-01-15T18:11:10.948Z,71.45
2023-01-15T18:13:37.740Z,71.40
2023-01-15T18:16:04.648Z,71.44
2023-01-15T18:18:31.576Z,71.41
2023-01-15T18:21:00.046Z,71.31
2023-01-15T18:23:27.434Z,71.47
2023-01-15T18:25:54.401Z,71.47
2023-01-15T18:28:21.407Z,71.51
2023-01-15T18:30:48.388Z,71.56
2023-01-15T18:33:15.455Z,71.59
2023-01-15T18:35:42.212Z,71.52
2023-01-15T18:38:09.014Z,71.48
2023-01-15T18:40:36.045Z,71.70
2023-01-15T18:43:21.387Z,71.75
2023-01-15T18:46:06.854Z,72.05
2023-01-15T18:48:34.010Z,72.13
2023-01-15T18:51:09.250Z,71.83
2023-01-15T18:53:36.062Z,72.07
2023-01-15T18:56:06.125Z,71.95
2023-01-15T18:58:33.053Z,71.89
2023-01-15T19:01:06.996Z,71.87
2023-01-15T19:03:33.969Z,72.00
2023-01-15T19:06:13.097Z,71.88
2023-01-15T19:08:40.046Z,72.27
2023-01-15T19:11:15.647Z,71.96
2023-01-15T19:13:42.706Z,72.40
2023-01-15T19:16:27.831Z,72.52
2023-01-15T19:18:54.824Z,72.49
2023-01-15T19:21:21.718Z,72.67
2023-01-15T19:23:48.538Z,72.50
2023-01-15T19:26:15.450Z,72.38
2023-01-15T19:28:42.315Z,72.68
2023-01-15T19:31:28.308Z,72.62
2023-01-15T19:34:13.134Z,72.29
2023-01-15T19:36:45.252Z,71.79
2023-01-15T19:39:12.051Z,71.42
2023-01-15T19:41:57.389Z,71.10
2023-01-15T19:44:42.774Z,71.47
2023-01-15T19:47:35.203Z,71.58
2023-01-15T19:50:20.125Z,72.05
2023-01-15T19:52:51.764Z,72.14
2023-01-15T19:55:18.893Z,72.35
2023-01-15T19:57:47.350Z,72.62
2023-01-15T20:00:16.651Z,72.55
2023-01-15T20:02:44.419Z,72.67
2023-01-15T20:05:11.441Z,72.80
2023-01-15T20:07:38.498Z,72.88
2023-01-15T20:10:16.138Z,72.65
2023-01-15T20:13:01.803Z,73.20
2023-01-15T20:15:28.773Z,73.43
2023-01-15T20:17:56.411Z,73.68
2023-01-15T20:20:23.738Z,73.45
2023-01-15T20:22:50.522Z,73.56
2023-01-15T20:25:17.417Z,73.30
2023-01-15T20:27:44.504Z,73.62
2023-01-15T20:30:13.822Z,73.78
2023-01-15T20:32:42.215Z,73.74
2023-01-15T20:35:11.504Z,73.90
2023-01-15T20:37:38.409Z,74.04
2023-01-15T20:40:05.830Z,74.13
2023-01-15T20:42:51.238Z,74.19
2023-01-15T20:45:18.019Z,73.63
2023-01-15T20:48:03.396Z,73.74
2023-01-15T20:50:33.640Z,72.48
2023-01-15T20:53:00.442Z,72.86
2023-01-15T20:55:54.887Z,73.05
2023-01-15T20:58:24.079Z,73.03
2023-01-15T21:00:51.074Z,73.24
2023-01-15T21:03:18.209Z,73.22
2023-01-15T21:05:45.214Z,73.16
2023-01-15T21:08:12.552Z,72.96
2023-01-15T21:10:40.159Z,72.78
2023-01-15T21:13:06.987Z,72.62
2023-01-15T21:15:33.971Z,72.29
2023-01-15T21:20:33.511Z,72.87
2023-01-15T21:23:00.575Z,72.90
2023-01-15T21:25:27.441Z,72.78
2023-01-15T21:27:54.229Z,72.65
2023-01-15T21:30:21.281Z,72.20
2023-01-15T21:32:48.865Z,72.57
2023-01-15T21:35:15.776Z,72.56
2023-01-15T21:37:42.679Z,72.98
2023-01-15T21:40:10.314Z,73.17
2023-01-15T21:42:55.612Z,73.55
2023-01-15T21:45:22.534Z,74.00
2023-01-15T21:47:49.464Z,74.28
2023-01-15T21:50:17.927Z,74.70
2023-01-15T21:52:44.827Z,74.58
2023-01-15T21:55:13.267Z,74.71
2023-01-15T21:57:40.305Z,74.71
2023-01-15T22:00:08.112Z,74.85
2023-01-15T22:02:36.066Z,74.62
2023-01-15T22:05:03.835Z,74.45
2023-01-15T22:07:30.566Z,73.82
2023-01-15T22:09:57.441Z,73.51
2023-01-15T22:12:24.319Z,73.58
2023-01-15T22:14:51.155Z,73.80
2023-01-15T22:17:18.119Z,74.24
2023-01-15T22:19:44.967Z,74.89
2023-01-15T22:22:11.831Z,75.24
2023-01-15T22:24:40.024Z,76.21
2023-01-15T22:27:07.761Z,76.68
2023-01-15T22:29:38.423Z,77.22
2023-01-15T22:32:06.213Z,77.72
2023-01-15T22:34:33.153Z,77.88
2023-01-15T22:37:00.091Z,78.07
2023-01-15T22:39:27.164Z,78.28
2023-01-15T22:42:12.560Z,78.44
2023-01-15T22:44:39.848Z,78.56
2023-01-15T22:47:06.791Z,78.74
2023-01-15T22:49:33.587Z,78.73
2023-01-15T22:52:00.540Z,79.04
2023-01-15T22:54:27.373Z,79.17
2023-01-15T22:56:54.298Z,79.29
2023-01-15T22:59:21.179Z,79.63
2023-01-15T23:01:48.116Z,79.63
2023-01-15T23:04:25.226Z,79.82
2023-01-15T23:06:52.685Z,80.19
2023-01-15T23:09:20.340Z,80.48
2023-01-15T23:11:47.217Z,80.82
2023-01-15T23:14:16.032Z,81.07
2023-01-15T23:16:43.389Z,81.23
2023-01-15T23:19:10.432Z,81.17
2023-01-15T23:21:37.367Z,80.99
2023-01-15T23:24:04.372Z,81.24
2023-01-15T23:26:32.078Z,81.57
2023-01-15T23:28:59.033Z,81.50
2023-01-15T23:31:26.090Z,81.73
2023-01-15T23:33:52.947Z,81.94
2023-01-15T23:36:19.848Z,81.89
2023-01-15T23:38:49.345Z,81.95
2023-01-15T23:41:17.773Z,82.00
2023-01-15T23:44:03.068Z,81.84
2023-01-15T23:46:33.148Z,81.85
2023-01-15T23:49:10.283Z,81.94
2023-01-15T23:51:37.504Z,82.18
2023-01-15T23:54:04.702Z,82.47
2023-01-15T23:56:31.986Z,82.43
2023-01-15T23:58:58.966Z,82.42
